createdAt,value
2023-03-16T00:02:41.379Z,96.67
2023-03-16T00:07:45.809Z,97.30
2023-03-16T00:12:54.445Z,96.63
2023-03-16T00:18:00.773Z,97.20
2023-03-16T00:23:05.998Z,97.20
2023-03-16T00:28:24.802Z,97.56
2023-03-16T00:33:34.844Z,97.83
2023-03-16T00:38:41.238Z,98.18
2023-03-16T00:43:47.058Z,97.87
2023-03-16T00:48:55.373Z,98.75
2023-03-16T00:53:59.848Z,99.21
2023-03-16T00:59:07.390Z,99.11
2023-03-16T01:04:14.719Z,99.81
2023-03-16T01:09:20.680Z,100.00
2023-03-16T01:14:28.997Z,100.00
2023-03-16T01:19:37.613Z,100.00
2023-03-16T01:24:45.803Z,100.00
2023-03-16T01:29:52.014Z,100.00
2023-03-16T01:34:56.726Z,100.00
2023-03-16T01:40:03.460Z,100.00
2023-03-16T01:45:41.834Z,100.00
2023-03-16T01:56:20.358Z,100.00
2023-03-16T02:01:28.789Z,100.00
2023-03-16T02:06:38.457Z,100.00
2023-03-16T02:11:45.418Z,100.00
2023-03-16T02:16:53.111Z,100.00
2023-03-16T02:22:03.278Z,100.00
2023-03-16T02:27:10.845Z,100.00
2023-03-16T02:32:21.738Z,100.00
2023-03-16T02:37:27.561Z,100.00
2023-03-16T02:42:35.688Z,100.00
2023-03-16T02:47:47.297Z,100.00
2023-03-16T02:52:55.062Z,100.00
2023-03-16T02:58:00.165Z,100.00
2023-03-16T03:03:21.782Z,100.00
2023-03-16T03:08:34.587Z,100.00
2023-03-16T03:13:44.649Z,100.00
2023-03-16T03:18:53.304Z,100.00
2023-03-16T03:24:03.134Z,100.00
2023-03-16T03:29:10.322Z,100.00
2023-03-16T03:34:18.450Z,100.00
2023-03-16T03:39:26.625Z,100.00
2023-03-16T03:44:34.771Z,100.00
2023-03-16T03:49:52.431Z,100.00
2023-03-16T03:54:58.595Z,100.00
2023-03-16T04:00:09.237Z,100.00
2023-03-16T04:05:20.495Z,100.00
2023-03-16T04:10:24.846Z,100.00
2023-03-16T04:15:30.865Z,100.00
2023-03-16T04:20:38.670Z,100.00
2023-03-16T04:25:49.819Z,100.00
2023-03-16T04:30:54.999Z,100.00
2023-03-16T04:36:04.227Z,100.00
2023-03-16T04:41:10.353Z,100.00
2023-03-16T04:46:16.993Z,100.00
2023-03-16T04:51:25.191Z,100.00
2023-03-16T04:56:35.026Z,100.00
2023-03-16T05:01:50.971Z,100.00
2023-03-16T05:06:58.382Z,100.00
2023-03-16T05:12:11.510Z,100.00
2023-03-16T05:17:19.448Z,100.00
2023-03-16T05:22:28.817Z,100.00
2023-03-16T05:27:46.547Z,100.00
2023-03-16T05:32:55.350Z,100.00
2023-03-16T05:38:03.932Z,100.00
2023-03-16T05:43:10.888Z,100.00
2023-03-16T05:48:16.248Z,100.00
2023-03-16T05:53:31.179Z,100.00
2023-03-16T05:58:38.924Z,100.00
2023-03-16T06:03:45.472Z,100.00
2023-03-16T06:08:56.764Z,100.00
2023-03-16T06:14:09.354Z,100.00
2023-03-16T06:19:15.979Z,100.00
2023-03-16T06:24:22.160Z,100.00
2023-03-16T06:29:33.563Z,100.00
2023-03-16T06:34:39.464Z,100.00
2023-03-16T06:39:48.477Z,100.00
2023-03-16T06:44:53.499Z,99.25
2023-03-16T06:50:04.539Z,95.47
2023-03-16T06:55:17.979Z,91.17
2023-03-16T07:00:23.554Z,87.25
2023-03-16T07:05:32.125Z,80.42
2023-03-16T07:10:45.456Z,75.00
2023-03-16T07:15:54.223Z,66.71
2023-03-16T07:21:02.046Z,66.56
2023-03-16T07:26:10.398Z,60.47
2023-03-16T07:31:16.906Z,55.86
2023-03-16T07:36:22.457Z,51.29
2023-03-16T07:41:37.861Z,50.91
2023-03-16T07:46:43.311Z,51.14
2023-03-16T07:51:51.345Z,49.98
2023-03-16T07:56:58.505Z,49.90
2023-03-16T08:02:03.656Z,47.51
2023-03-16T08:07:11.706Z,47.75
2023-03-16T08:12:20.211Z,47.46
2023-03-16T08:17:26.834Z,47.83
2023-03-16T08:22:33.697Z,46.79
2023-03-16T08:27:43.411Z,48.29
2023-03-16T08:32:48.004Z,47.48
2023-03-16T08:37:57.223Z,46.64
2023-03-16T08:43:04.293Z,43.64
2023-03-16T08:48:13.359Z,42.60
2023-03-16T08:53:17.712Z,43.41
2023-03-16T08:58:29.143Z,44.93
2023-03-16T09:03:35.369Z,45.48
2023-03-16T09:08:40.944Z,45.50
2023-03-16T09:13:48.932Z,42.91
2023-03-16T09:18:56.398Z,45.01
2023-03-16T09:24:00.725Z,45.09
2023-03-16T09:29:08.105Z,44.40
2023-03-16T09:34:13.942Z,44.26
2023-03-16T09:39:20.033Z,44.30
2023-03-16T09:44:43.397Z,43.13
2023-03-16T09:49:59.330Z,43.63
2023-03-16T09:55:13.582Z,43.24
2023-03-16T10:00:26.117Z,42.83
2023-03-16T10:05:33.658Z,43.99
2023-03-16T10:10:52.045Z,43.46
2023-03-16T10:16:03.975Z,43.77
2023-03-16T10:21:15.290Z,43.58
2023-03-16T10:26:29.346Z,44.53
2023-03-16T10:31:38.503Z,42.58
2023-03-16T10:36:48.584Z,42.94
2023-03-16T10:42:00.815Z,43.92
2023-03-16T10:47:08.916Z,45.74
2023-03-16T10:52:20.909Z,46.43
2023-03-16T10:57:33.998Z,45.69
2023-03-16T11:02:41.528Z,45.64
2023-03-16T11:07:59.252Z,44.99
2023-03-16T11:13:16.995Z,45.10
2023-03-16T11:18:37.287Z,44.94
2023-03-16T11:23:46.240Z,45.86
2023-03-16T11:28:59.401Z,45.24
2023-03-16T11:34:20.127Z,45.82
2023-03-16T11:39:38.439Z,44.42
2023-03-16T11:44:50.604Z,44.09
2023-03-16T11:50:06.232Z,44.05
2023-03-16T11:55:25.320Z,43.34
2023-03-16T12:00:38.651Z,43.78
2023-03-16T12:06:22.368Z,41.64
2023-03-16T12:11:32.386Z,42.33
2023-03-16T12:16:49.583Z,41.61
2023-03-16T12:22:07.014Z,40.16
2023-03-16T12:27:30.599Z,41.19
2023-03-16T12:33:01.579Z,41.29
2023-03-16T12:38:32.295Z,40.81
2023-03-16T12:43:50.275Z,41.31
2023-03-16T12:49:05.946Z,41.82
2023-03-16T12:54:24.185Z,41.73
2023-03-16T12:59:40.708Z,42.01
2023-03-16T13:04:51.795Z,42.01
2023-03-16T13:10:05.767Z,42.36
2023-03-16T13:15:33.031Z,40.58
2023-03-16T13:20:54.805Z,40.32
2023-03-16T13:26:28.866Z,39.63
2023-03-16T13:31:42.732Z,39.75
2023-03-16T13:36:47.735Z,40.32
2023-03-16T13:42:18.287Z,39.08
2023-03-16T13:47:28.345Z,39.43
2023-03-16T13:52:37.292Z,39.78
2023-03-16T13:57:45.643Z,38.24
2023-03-16T14:02:54.479Z,39.06
2023-03-16T14:08:01.718Z,39.82
2023-03-16T14:13:27.733Z,40.31
2023-03-16T14:18:37.810Z,40.74
2023-03-16T14:23:46.648Z,39.77
2023-03-16T14:29:06.175Z,40.78
2023-03-16T14:34:27.385Z,40.85
2023-03-16T14:39:36.900Z,41.67
2023-03-16T14:44:44.218Z,42.30
2023-03-16T14:49:49.810Z,41.92
2023-03-16T14:54:57.102Z,42.63
2023-03-16T15:00:03.550Z,41.77
2023-03-16T15:05:10.149Z,41.81
2023-03-16T15:10:25.470Z,42.52
2023-03-16T15:15:32.889Z,41.80
2023-03-16T15:20:41.620Z,42.21
2023-03-16T15:25:50.809Z,42.09
2023-03-16T15:31:06.662Z,43.69
2023-03-16T15:36:17.516Z,43.59
2023-03-16T15:41:23.173Z,43.61
2023-03-16T15:46:30.271Z,44.47
2023-03-16T15:51:38.471Z,43.96
2023-03-16T15:56:54.434Z,43.64
2023-03-16T16:02:01.530Z,43.99
2023-03-16T16:07:12.149Z,43.26
2023-03-16T16:12:19.667Z,43.24
2023-03-16T16:17:53.860Z,43.89
2023-03-16T16:23:08.381Z,44.31
2023-03-16T16:28:16.979Z,44.54
2023-03-16T16:33:31.415Z,44.32
2023-03-16T16:38:36.256Z,44.96
2023-03-16T16:43:44.653Z,45.68
2023-03-16T16:49:19.873Z,46.24
2023-03-16T16:54:27.921Z,46.03
2023-03-16T16:59:35.125Z,46.48
2023-03-16T17:04:40.762Z,47.28
2023-03-16T17:09:45.973Z,46.49
2023-03-16T17:14:50.191Z,46.85
2023-03-16T17:19:59.382Z,47.89
2023-03-16T17:25:25.234Z,48.02
2023-03-16T17:30:33.798Z,47.76
2023-03-16T17:35:43.770Z,48.04
2023-03-16T17:40:53.553Z,48.49
2023-03-16T17:45:58.852Z,48.36
2023-03-16T17:51:03.483Z,48.01
2023-03-16T17:56:19.306Z,48.67
2023-03-16T18:01:26.719Z,49.87
2023-03-16T18:06:36.365Z,50.67
2023-03-16T18:11:49.562Z,50.46
2023-03-16T18:16:55.345Z,50.72
2023-03-16T18:22:02.622Z,51.22
2023-03-16T18:27:09.312Z,51.45
2023-03-16T18:32:24.159Z,51.38
2023-03-16T18:37:32.383Z,51.43
2023-03-16T18:42:39.451Z,51.42
2023-03-16T18:47:55.780Z,51.24
2023-03-16T18:53:03.546Z,50.75
2023-03-16T18:58:17.429Z,51.17
2023-03-16T19:03:30.085Z,51.33
2023-03-16T19:08:35.441Z,52.17
2023-03-16T19:13:42.803Z,51.66
2023-03-16T19:18:49.978Z,52.14
2023-03-16T19:23:58.887Z,52.88
2023-03-16T19:29:04.932Z,52.77
2023-03-16T19:34:20.052Z,52.50
2023-03-16T19:39:24.360Z,53.40
2023-03-16T19:44:32.268Z,54.19
2023-03-16T19:49:36.867Z,54.79
2023-03-16T19:54:46.994Z,54.21
2023-03-16T20:00:01.335Z,55.17
2023-03-16T20:05:21.845Z,55.49
2023-03-16T20:10:39.778Z,54.85
2023-03-16T20:15:48.063Z,54.87
2023-03-16T20:20:52.166Z,55.92
2023-03-16T20:26:01.381Z,55.85
2023-03-16T20:31:18.657Z,57.43
2023-03-16T20:36:23.974Z,57.45
2023-03-16T20:41:37.233Z,57.73
2023-03-16T20:46:45.737Z,58.11
2023-03-16T20:51:53.609Z,58.06
2023-03-16T20:56:57.628Z,58.54
2023-03-16T21:02:40.242Z,58.95
2023-03-16T21:07:47.171Z,60.11
2023-03-16T21:12:56.905Z,59.33
2023-03-16T21:18:05.152Z,59.93
2023-03-16T21:23:16.314Z,60.04
2023-03-16T21:28:22.018Z,60.90
2023-03-16T21:33:36.769Z,60.56
2023-03-16T21:38:55.278Z,60.38
2023-03-16T21:43:58.819Z,61.05
2023-03-16T21:49:15.295Z,61.56
2023-03-16T21:54:25.899Z,61.92
2023-03-16T21:59:32.462Z,61.50
2023-03-16T22:04:45.208Z,61.67
2023-03-16T22:09:54.228Z,62.08
2023-03-16T22:15:03.202Z,62.41
2023-03-16T22:20:18.864Z,62.21
2023-03-16T22:25:27.982Z,61.84
2023-03-16T22:30:33.795Z,61.65
2023-03-16T22:35:40.604Z,62.36
2023-03-16T22:40:47.926Z,61.89
2023-03-16T22:45:57.760Z,62.08
2023-03-16T22:51:05.859Z,62.54
2023-03-16T22:56:12.081Z,62.68
2023-03-16T23:01:20.906Z,62.77
2023-03-16T23:06:30.230Z,63.14
2023-03-16T23:11:36.129Z,63.08
2023-03-16T23:16:43.336Z,62.78
2023-03-16T23:21:49.978Z,63.63
2023-03-16T23:27:03.994Z,63.11
2023-03-16T23:32:09.542Z,63.67
2023-03-16T23:37:16.604Z,63.48
2023-03-16T23:42:20.737Z,63.48
2023-03-16T23:47:27.448Z,64.14
2023-03-16T23:52:35.711Z,63.76
2023-03-16T23:57:45.417Z,63.87
